createdAt,value
2023-04-04T00:00:43.867Z,3.99
2023-04-04T00:01:46.898Z,3.84
2023-04-04T00:02:50.515Z,3.93
2023-04-04T00:03:52.321Z,3.72
2023-04-04T00:04:55.010Z,3.62
2023-04-04T00:05:56.560Z,3.95
2023-04-04T00:06:59.317Z,3.80
2023-04-04T00:08:00.860Z,3.72
2023-04-04T00:09:03.357Z,3.80
2023-04-04T00:10:05.599Z,3.75
2023-04-04T00:11:08.170Z,3.25
2023-04-04T00:12:09.831Z,3.55
2023-04-04T00:13:12.531Z,3.93
2023-04-04T00:14:14.120Z,4.23
2023-04-04T00:15:16.627Z,4.29
2023-04-04T00:16:18.253Z,4.46
2023-04-04T00:17:22.158Z,4.67
2023-04-04T00:18:23.824Z,4.77
2023-04-04T00:19:26.371Z,4.39
2023-04-04T00:20:28.007Z,4.10
2023-04-04T00:21:30.654Z,3.97
2023-04-04T00:22:32.220Z,3.91
2023-04-04T00:23:34.768Z,3.98
2023-04-04T00:24:36.402Z,4.17
2023-04-04T00:25:39.334Z,3.99
2023-04-04T00:26:40.941Z,3.71
2023-04-04T00:27:44.142Z,3.69
2023-04-04T00:28:45.662Z,3.73
2023-04-04T00:29:48.161Z,3.67
2023-04-04T00:30:50.638Z,3.71
2023-04-04T00:31:52.407Z,3.86
2023-04-04T00:32:57.290Z,4.15
2023-04-04T00:33:58.920Z,4.22
2023-04-04T00:35:01.445Z,4.26
2023-04-04T00:36:03.249Z,4.07
2023-04-04T00:37:07.449Z,4.19
2023-04-04T00:38:09.039Z,4.11
2023-04-04T00:39:11.617Z,4.35
2023-04-04T00:40:13.587Z,4.35
2023-04-04T00:41:17.431Z,4.17
2023-04-04T00:42:19.038Z,3.95
2023-04-04T00:43:21.913Z,4.11
2023-04-04T00:44:23.514Z,3.96
2023-04-04T00:45:26.166Z,4.22
2023-04-04T00:46:29.402Z,4.47
2023-04-04T00:47:32.217Z,4.53
2023-04-04T00:48:36.090Z,4.53
2023-04-04T00:49:38.656Z,4.36
2023-04-04T00:50:40.902Z,4.24
2023-04-04T00:51:43.612Z,4.38
2023-04-04T00:52:45.248Z,4.44
2023-04-04T00:53:48.972Z,4.14
2023-04-04T00:54:50.747Z,3.74
2023-04-04T00:55:53.273Z,3.37
2023-04-04T00:56:55.443Z,3.58
2023-04-04T00:57:59.956Z,3.58
2023-04-04T00:59:01.745Z,3.70
2023-04-04T01:00:06.770Z,3.75
2023-04-04T01:01:08.780Z,3.42
2023-04-04T01:02:11.553Z,3.65
2023-04-04T01:03:14.086Z,3.98
2023-04-04T01:04:18.553Z,4.27
2023-04-04T01:05:20.158Z,4.53
2023-04-04T01:06:22.676Z,4.49
2023-04-04T01:07:24.502Z,4.13
2023-04-04T01:08:29.110Z,4.24
2023-04-04T01:09:30.964Z,4.36
2023-04-04T01:10:34.282Z,4.04
2023-04-04T01:11:36.300Z,4.06
2023-04-04T01:12:39.280Z,4.07
2023-04-04T01:13:41.071Z,4.07
2023-04-04T01:14:43.875Z,4.29
2023-04-04T01:15:45.655Z,4.38
2023-04-04T01:16:49.428Z,4.23
2023-04-04T01:17:52.947Z,4.12
2023-04-04T01:18:57.252Z,3.93
2023-04-04T01:20:05.601Z,3.93
2023-04-04T01:21:11.259Z,3.78
2023-04-04T01:22:14.741Z,4.05
2023-04-04T01:23:18.537Z,4.06
2023-04-04T01:24:22.448Z,4.34
2023-04-04T01:25:31.868Z,4.08
2023-04-04T01:26:33.437Z,3.32
2023-04-04T01:27:39.356Z,3.59
2023-04-04T01:28:41.135Z,3.41
2023-04-04T01:29:43.653Z,3.37
2023-04-04T01:30:45.750Z,3.27
2023-04-04T01:31:57.383Z,3.36
2023-04-04T01:33:02.702Z,3.38
2023-04-04T01:34:18.641Z,3.56
2023-04-04T01:35:28.951Z,3.51
2023-04-04T01:36:34.848Z,3.30
2023-04-04T01:37:42.421Z,3.31
2023-04-04T01:38:54.089Z,2.82
2023-04-04T01:39:59.759Z,2.83
2023-04-04T01:41:08.607Z,2.93
2023-04-04T01:42:12.630Z,3.11
2023-04-04T01:43:15.187Z,3.36
2023-04-04T01:44:19.084Z,3.23
2023-04-04T01:45:23.180Z,2.95
2023-04-04T01:46:24.797Z,2.78
2023-04-04T01:47:27.400Z,2.79
2023-04-04T01:48:30.128Z,3.08
2023-04-04T01:49:32.622Z,3.00
2023-04-04T01:50:34.158Z,2.76
2023-04-04T01:51:37.009Z,2.42
2023-04-04T01:52:38.921Z,2.21
2023-04-04T01:53:41.374Z,2.24
2023-04-04T01:54:42.876Z,2.19
2023-04-04T01:55:45.426Z,2.11
2023-04-04T01:56:48.519Z,2.10
2023-04-04T01:57:51.318Z,2.06
2023-04-04T01:58:53.804Z,2.14
2023-04-04T01:59:56.678Z,2.29
2023-04-04T02:00:58.210Z,2.31
2023-04-04T02:02:01.070Z,2.43
2023-04-04T02:03:02.993Z,2.75
2023-04-04T02:04:05.967Z,2.67
2023-04-04T02:05:08.039Z,2.75
2023-04-04T02:06:10.511Z,2.86
2023-04-04T02:07:12.032Z,3.19
2023-04-04T02:08:15.217Z,3.27
2023-04-04T02:09:16.816Z,3.09
2023-04-04T02:10:19.579Z,3.14
2023-04-04T02:11:23.002Z,2.59
2023-04-04T02:12:26.892Z,2.62
2023-04-04T02:13:28.897Z,2.35
2023-04-04T02:14:31.495Z,2.42
2023-04-04T02:15:33.341Z,2.22
2023-04-04T02:16:35.748Z,2.36
2023-04-04T02:17:37.512Z,2.22
2023-04-04T02:18:40.453Z,2.38
2023-04-04T02:19:42.005Z,2.63
2023-04-04T02:20:44.495Z,2.85
2023-04-04T02:21:45.984Z,2.80
2023-04-04T02:22:52.784Z,2.66
2023-04-04T02:23:54.316Z,2.82
2023-04-04T02:24:57.683Z,2.83
2023-04-04T02:25:59.234Z,3.19
2023-04-04T02:27:01.768Z,3.19
2023-04-04T02:28:04.687Z,2.76
2023-04-04T02:29:07.225Z,2.86
2023-04-04T02:30:09.960Z,3.07
2023-04-04T02:31:12.449Z,3.07
2023-04-04T02:32:14.066Z,3.28
2023-04-04T02:33:17.108Z,3.32
2023-04-04T02:34:19.068Z,3.26
2023-04-04T02:35:21.628Z,3.41
2023-04-04T02:36:23.205Z,3.60
2023-04-04T02:37:25.660Z,3.64
2023-04-04T02:38:27.422Z,3.19
2023-04-04T02:39:29.941Z,3.03
2023-04-04T02:40:31.504Z,3.25
2023-04-04T02:41:34.317Z,3.10
2023-04-04T02:42:35.815Z,3.17
2023-04-04T02:43:39.683Z,3.20
2023-04-04T02:44:41.464Z,3.17
2023-04-04T02:45:44.113Z,3.05
2023-04-04T02:46:45.941Z,3.27
2023-04-04T02:47:51.457Z,2.92
2023-04-04T02:48:53.310Z,2.68
2023-04-04T02:49:55.812Z,2.85
2023-04-04T02:50:57.318Z,3.08
2023-04-04T02:51:59.791Z,2.97
2023-04-04T02:53:01.339Z,2.91
2023-04-04T02:54:04.185Z,3.13
2023-04-04T02:55:07.026Z,3.17
2023-04-04T02:56:09.475Z,3.26
2023-04-04T02:57:11.344Z,3.39
2023-04-04T02:58:14.025Z,3.57
2023-04-04T02:59:18.111Z,3.60
2023-04-04T03:00:21.237Z,3.58
2023-04-04T03:01:22.927Z,3.64
2023-04-04T03:02:25.820Z,3.55
2023-04-04T03:03:27.733Z,2.79
2023-04-04T03:04:30.470Z,2.90
2023-04-04T03:05:32.645Z,3.04
2023-04-04T03:06:35.318Z,2.79
2023-04-04T03:07:36.957Z,2.89
2023-04-04T03:08:39.459Z,2.97
2023-04-04T03:09:44.976Z,2.94
2023-04-04T03:10:47.521Z,2.96
2023-04-04T03:11:49.973Z,3.11
2023-04-04T03:12:52.576Z,2.98
2023-04-04T03:13:56.004Z,2.83
2023-04-04T03:14:59.845Z,2.75
2023-04-04T03:16:04.382Z,2.79
2023-04-04T03:17:07.619Z,2.63
2023-04-04T03:18:09.200Z,2.63
2023-04-04T03:19:11.745Z,2.59
2023-04-04T03:20:15.013Z,2.94
2023-04-04T03:21:17.597Z,3.14
2023-04-04T03:22:19.183Z,3.37
2023-04-04T03:23:21.739Z,3.44
2023-04-04T03:24:23.269Z,3.34
2023-04-04T03:25:25.968Z,3.48
2023-04-04T03:26:28.461Z,3.25
2023-04-04T03:27:32.371Z,2.85
2023-04-04T03:28:33.870Z,3.07
2023-04-04T03:29:36.348Z,3.24
2023-04-04T03:30:39.929Z,2.80
2023-04-04T03:31:42.747Z,2.82
2023-04-04T03:32:44.641Z,2.59
2023-04-04T03:33:47.330Z,2.94
2023-04-04T03:34:48.900Z,3.25
2023-04-04T03:35:51.411Z,3.16
2023-04-04T03:36:54.038Z,2.75
2023-04-04T03:37:56.200Z,2.60
2023-04-04T03:38:58.647Z,2.49
2023-04-04T03:40:00.244Z,2.30
2023-04-04T03:41:03.334Z,2.62
2023-04-04T03:42:04.910Z,2.78
2023-04-04T03:43:07.913Z,2.63
2023-04-04T03:44:09.526Z,2.74
2023-04-04T03:45:12.778Z,2.65
2023-04-04T03:46:15.891Z,2.29
2023-04-04T03:47:18.402Z,1.97
2023-04-04T03:48:20.078Z,1.80
2023-04-04T03:49:22.496Z,2.09
2023-04-04T03:50:24.146Z,2.43
2023-04-04T03:51:27.393Z,2.28
2023-04-04T03:52:29.245Z,2.27
2023-04-04T03:53:32.319Z,2.39
2023-04-04T03:54:34.530Z,2.08
2023-04-04T03:55:37.085Z,2.43
2023-04-04T03:56:39.040Z,2.45
2023-04-04T03:57:41.575Z,2.71
2023-04-04T03:58:43.178Z,2.99
2023-04-04T03:59:45.628Z,3.19
2023-04-04T04:00:47.236Z,2.83
2023-04-04T04:01:51.269Z,2.79
2023-04-04T04:02:52.940Z,2.59
2023-04-04T04:03:55.420Z,2.43
2023-04-04T04:04:56.914Z,2.26
2023-04-04T04:06:00.226Z,2.43
2023-04-04T04:07:02.597Z,2.40
2023-04-04T04:08:05.474Z,2.45
2023-04-04T04:09:07.823Z,2.59
2023-04-04T04:10:11.011Z,2.39
2023-04-04T04:11:12.556Z,2.46
2023-04-04T04:12:15.277Z,2.71
2023-04-04T04:13:16.821Z,3.01
2023-04-04T04:14:19.292Z,2.49
2023-04-04T04:15:20.744Z,2.53
2023-04-04T04:16:23.306Z,2.62
2023-04-04T04:17:26.319Z,2.69
2023-04-04T04:18:29.007Z,2.38
2023-04-04T04:19:30.547Z,2.76
2023-04-04T04:20:33.119Z,2.99
2023-04-04T04:21:34.649Z,3.13
2023-04-04T04:22:37.985Z,2.82
2023-04-04T04:23:39.632Z,2.69
2023-04-04T04:24:42.092Z,2.78
2023-04-04T04:25:43.601Z,2.63
2023-04-04T04:26:46.224Z,2.25
2023-04-04T04:27:48.068Z,2.68
2023-04-04T04:28:50.606Z,2.85
2023-04-04T04:29:52.172Z,2.41
2023-04-04T04:30:54.760Z,2.04
2023-04-04T04:31:56.438Z,2.23
2023-04-04T04:33:00.323Z,2.24
2023-04-04T04:34:05.219Z,2.14
2023-04-04T04:35:09.345Z,2.24
2023-04-04T04:36:10.897Z,2.21
2023-04-04T04:37:13.531Z,2.20
2023-04-04T04:38:15.030Z,2.22
2023-04-04T04:39:17.590Z,2.19
2023-04-04T04:40:19.072Z,1.93
2023-04-04T04:41:22.251Z,1.52
2023-04-04T04:42:23.748Z,1.87
2023-04-04T04:43:26.230Z,1.97
2023-04-04T04:44:27.708Z,2.30
2023-04-04T04:45:30.143Z,2.18
2023-04-04T04:46:32.218Z,2.20
2023-04-04T04:47:34.913Z,2.08
2023-04-04T04:48:37.802Z,2.38
2023-04-04T04:49:40.283Z,2.24
2023-04-04T04:50:43.159Z,2.42
2023-04-04T04:51:45.620Z,2.20
2023-04-04T04:52:47.125Z,2.33
2023-04-04T04:53:49.625Z,2.37
2023-04-04T04:54:51.674Z,2.63
2023-04-04T04:55:54.125Z,2.82
2023-04-04T04:56:55.662Z,2.86
2023-04-04T04:57:58.212Z,2.68
2023-04-04T04:58:59.785Z,2.35
2023-04-04T05:00:02.421Z,1.88
2023-04-04T05:01:03.968Z,1.80
2023-04-04T05:02:06.476Z,1.79
2023-04-04T05:03:08.104Z,2.14
2023-04-04T05:04:12.031Z,2.00
2023-04-04T05:05:13.707Z,1.85
2023-04-04T05:06:16.334Z,2.22
2023-04-04T05:07:17.793Z,1.89
2023-04-04T05:08:20.327Z,2.10
2023-04-04T05:09:21.923Z,2.25
2023-04-04T05:10:24.612Z,2.50
2023-04-04T05:11:26.235Z,2.45
2023-04-04T05:12:28.915Z,2.46
2023-04-04T05:13:30.747Z,2.30
2023-04-04T05:14:33.304Z,2.29
2023-04-04T05:15:34.818Z,2.05
2023-04-04T05:16:37.724Z,1.99
2023-04-04T05:17:39.637Z,2.23
2023-04-04T05:18:42.178Z,2.17
2023-04-04T05:19:45.565Z,2.47
2023-04-04T05:20:52.942Z,2.26
2023-04-04T05:21:55.640Z,2.45
2023-04-04T05:22:57.138Z,2.35
2023-04-04T05:23:59.932Z,2.63
2023-04-04T05:25:01.602Z,2.47
2023-04-04T05:26:04.281Z,2.08
2023-04-04T05:27:08.203Z,1.69
2023-04-04T05:28:10.694Z,1.87
2023-04-04T05:29:13.306Z,1.77
2023-04-04T05:30:15.261Z,1.43
2023-04-04T05:31:18.721Z,1.61
2023-04-04T05:32:20.408Z,1.59
2023-04-04T05:33:23.294Z,1.60
2023-04-04T05:34:26.609Z,1.56
2023-04-04T05:35:29.623Z,1.57
2023-04-04T05:36:32.164Z,1.73
2023-04-04T05:37:34.850Z,1.65
2023-04-04T05:38:37.457Z,1.96
2023-04-04T05:39:39.527Z,2.06
2023-04-04T05:40:42.120Z,1.89
2023-04-04T05:41:44.086Z,2.09
2023-04-04T05:42:55.054Z,2.22
2023-04-04T05:43:56.863Z,2.42
2023-04-04T05:44:59.490Z,2.14
2023-04-04T05:46:01.030Z,2.04
2023-04-04T05:47:03.579Z,1.88
2023-04-04T05:48:06.448Z,2.04
2023-04-04T05:49:08.052Z,2.26
2023-04-04T05:50:11.691Z,2.39
2023-04-04T05:51:14.557Z,2.52
2023-04-04T05:52:17.225Z,2.09
2023-04-04T05:53:19.962Z,2.20
2023-04-04T05:54:21.750Z,2.38
2023-04-04T05:55:24.398Z,2.57
2023-04-04T05:56:25.962Z,2.61
2023-04-04T05:57:28.938Z,2.49
2023-04-04T05:58:30.538Z,2.57
2023-04-04T05:59:33.237Z,1.95
2023-04-04T06:00:35.857Z,2.26
2023-04-04T06:01:37.522Z,2.43
2023-04-04T06:02:40.162Z,2.19
2023-04-04T06:03:43.070Z,2.25
2023-04-04T06:04:45.558Z,2.01
2023-04-04T06:05:52.197Z,1.65
2023-04-04T06:06:55.739Z,1.54
2023-04-04T06:08:02.238Z,1.63
2023-04-04T06:09:06.890Z,1.48
2023-04-04T06:10:10.310Z,1.34
2023-04-04T06:11:12.793Z,1.58
2023-04-04T06:12:15.273Z,1.57
2023-04-04T06:13:17.897Z,1.69
2023-04-04T06:14:19.450Z,1.65
2023-04-04T06:15:21.894Z,1.71
2023-04-04T06:16:23.664Z,1.75
2023-04-04T06:17:26.592Z,2.00
2023-04-04T06:18:29.357Z,1.81
2023-04-04T06:19:30.896Z,1.43
2023-04-04T06:20:33.360Z,1.48
2023-04-04T06:21:36.101Z,1.86
2023-04-04T06:22:38.962Z,1.98
2023-04-04T06:23:41.599Z,2.11
2023-04-04T06:24:43.317Z,2.37
2023-04-04T06:25:46.017Z,2.40
2023-04-04T06:26:51.482Z,2.42
2023-04-04T06:27:53.968Z,2.37
2023-04-04T06:28:55.892Z,2.59
2023-04-04T06:29:58.372Z,2.88
2023-04-04T06:31:00.012Z,2.96
2023-04-04T06:32:02.648Z,3.00
2023-04-04T06:33:04.383Z,2.77
2023-04-04T06:34:06.944Z,2.87
2023-04-04T06:35:10.373Z,2.98
2023-04-04T06:36:13.130Z,2.81
2023-04-04T06:37:14.868Z,2.88
2023-04-04T06:38:18.757Z,2.59
2023-04-04T06:39:21.850Z,2.07
2023-04-04T06:40:24.814Z,2.38
2023-04-04T06:41:26.411Z,2.52
2023-04-04T06:42:29.165Z,2.86
2023-04-04T06:43:31.086Z,2.68
2023-04-04T06:44:33.679Z,2.67
2023-04-04T06:45:37.655Z,2.62
2023-04-04T06:46:40.378Z,2.62
2023-04-04T06:47:42.014Z,2.57
2023-04-04T06:48:44.925Z,2.43
2023-04-04T06:49:46.521Z,2.48
2023-04-04T06:50:49.182Z,2.47
2023-04-04T06:51:53.233Z,2.67
2023-04-04T06:52:57.302Z,2.92
2023-04-04T06:54:01.119Z,3.11
2023-04-04T06:55:04.281Z,3.18
2023-04-04T06:56:07.437Z,3.16
2023-04-04T06:57:09.002Z,2.50
2023-04-04T06:58:11.516Z,2.42
2023-04-04T06:59:13.142Z,2.42
2023-04-04T07:00:16.680Z,2.09
2023-04-04T07:01:19.249Z,2.47
2023-04-04T07:02:20.758Z,2.63
2023-04-04T07:03:24.126Z,2.99
2023-04-04T07:04:27.087Z,3.16
2023-04-04T07:05:28.655Z,3.37
2023-04-04T07:06:31.450Z,2.85
2023-04-04T07:07:33.020Z,2.93
2023-04-04T07:08:36.825Z,2.81
2023-04-04T07:09:39.999Z,2.49
2023-04-04T07:10:43.015Z,2.25
2023-04-04T07:11:44.793Z,2.46
2023-04-04T07:12:47.249Z,2.34
2023-04-04T07:13:49.986Z,2.64
2023-04-04T07:14:51.673Z,3.04
2023-04-04T07:15:54.220Z,3.11
2023-04-04T07:16:55.983Z,2.54
2023-04-04T07:17:58.803Z,2.69
2023-04-04T07:19:00.955Z,2.87
2023-04-04T07:20:04.870Z,3.05
2023-04-04T07:21:07.580Z,3.20
2023-04-04T07:22:10.013Z,3.50
2023-04-04T07:23:12.458Z,3.65
2023-04-04T07:24:14.901Z,3.79
2023-04-04T07:25:18.104Z,3.91
2023-04-04T07:26:21.383Z,3.96
2023-04-04T07:27:22.913Z,3.95
2023-04-04T07:28:25.407Z,3.77
2023-04-04T07:29:27.301Z,3.62
2023-04-04T07:30:32.843Z,3.49
2023-04-04T07:31:36.482Z,3.00
2023-04-04T07:32:39.089Z,3.16
2023-04-04T07:33:41.335Z,2.76
2023-04-04T07:34:47.134Z,2.86
2023-04-04T07:35:49.057Z,3.07
2023-04-04T07:36:51.554Z,3.61
2023-04-04T07:37:53.625Z,3.93
2023-04-04T07:38:56.408Z,4.32
2023-04-04T07:39:58.234Z,4.46
2023-04-04T07:41:04.104Z,4.70
2023-04-04T07:42:06.702Z,4.65
2023-04-04T07:43:09.262Z,4.62
2023-04-04T07:44:10.847Z,3.90
2023-04-04T07:45:13.524Z,3.52
2023-04-04T07:46:17.755Z,3.86
2023-04-04T07:47:19.472Z,3.90
2023-04-04T07:48:23.026Z,4.12
2023-04-04T07:49:25.631Z,4.37
2023-04-04T07:50:28.621Z,4.54
2023-04-04T07:51:31.063Z,4.45
2023-04-04T07:52:33.796Z,4.10
2023-04-04T07:53:35.298Z,3.70
2023-04-04T07:54:37.855Z,3.93
2023-04-04T07:55:40.505Z,4.24
2023-04-04T07:56:44.365Z,4.65
2023-04-04T07:57:47.229Z,4.69
2023-04-04T07:58:49.028Z,4.89
2023-04-04T07:59:51.761Z,5.28
2023-04-04T08:00:54.347Z,4.94
2023-04-04T08:01:55.902Z,4.36
2023-04-04T08:02:59.891Z,3.66
2023-04-04T08:04:02.611Z,3.98
2023-04-04T08:05:05.115Z,4.44
2023-04-04T08:06:07.951Z,4.64
2023-04-04T08:07:10.690Z,5.02
2023-04-04T08:08:13.815Z,4.73
2023-04-04T08:09:16.100Z,4.60
2023-04-04T08:10:19.281Z,4.87
2023-04-04T08:11:21.372Z,4.82
2023-04-04T08:12:25.287Z,4.95
2023-04-04T08:13:27.902Z,4.53
2023-04-04T08:14:31.287Z,4.90
2023-04-04T08:15:33.875Z,5.15
2023-04-04T08:16:35.650Z,4.92
2023-04-04T08:17:38.531Z,5.18
2023-04-04T08:18:41.297Z,5.12
2023-04-04T08:19:42.765Z,4.93
2023-04-04T08:20:45.474Z,4.76
2023-04-04T08:21:48.056Z,4.68
2023-04-04T08:22:50.722Z,4.92
2023-04-04T08:23:53.147Z,4.82
2023-04-04T08:24:55.712Z,4.89
2023-04-04T08:26:00.199Z,5.04
2023-04-04T08:27:05.660Z,5.03
2023-04-04T08:28:09.732Z,5.07
2023-04-04T08:29:11.722Z,4.85
2023-04-04T08:30:15.599Z,5.09
2023-04-04T08:31:18.991Z,5.28
2023-04-04T08:32:20.937Z,5.04
2023-04-04T08:33:29.017Z,5.01
2023-04-04T08:34:37.394Z,5.39
2023-04-04T08:35:39.022Z,5.45
2023-04-04T08:36:41.687Z,5.61
2023-04-04T08:37:46.682Z,5.25
2023-04-04T08:38:49.262Z,5.39
2023-04-04T08:39:51.214Z,5.49
2023-04-04T08:40:53.743Z,5.65
2023-04-04T08:42:05.633Z,4.85
2023-04-04T08:43:11.330Z,4.93
2023-04-04T08:44:17.304Z,5.17
2023-04-04T08:45:20.291Z,5.15
2023-04-04T08:46:23.173Z,4.94
2023-04-04T08:47:27.803Z,4.87
2023-04-04T08:48:32.167Z,4.57
2023-04-04T08:49:39.218Z,4.69
2023-04-04T08:50:43.048Z,4.64
2023-04-04T08:51:47.331Z,4.33
2023-04-04T08:52:51.009Z,4.22
2023-04-04T08:53:55.430Z,4.08
2023-04-04T08:54:58.403Z,4.18
2023-04-04T08:56:01.608Z,4.34
2023-04-04T08:57:04.136Z,4.26
2023-04-04T08:58:06.847Z,4.35
2023-04-04T08:59:11.762Z,4.72
2023-04-04T09:00:17.830Z,4.96
2023-04-04T09:01:20.547Z,5.23
2023-04-04T09:02:27.607Z,4.99
2023-04-04T09:03:32.991Z,4.96
2023-04-04T09:04:35.504Z,5.15
2023-04-04T09:05:39.067Z,5.37
2023-04-04T09:06:41.117Z,5.54
2023-04-04T09:07:45.268Z,5.63
2023-04-04T09:08:48.464Z,5.47
2023-04-04T09:09:52.122Z,5.23
2023-04-04T09:10:55.004Z,4.93
2023-04-04T09:11:56.610Z,4.63
2023-04-04T09:13:12.570Z,4.70
2023-04-04T09:14:22.346Z,5.04
2023-04-04T09:15:24.870Z,5.46
2023-04-04T09:16:27.554Z,5.74
2023-04-04T09:17:30.181Z,6.03
2023-04-04T09:18:32.742Z,6.29
2023-04-04T09:19:34.309Z,6.49
2023-04-04T09:20:38.679Z,5.70
2023-04-04T09:21:41.352Z,5.47
2023-04-04T09:22:45.157Z,5.55
2023-04-04T09:23:47.798Z,5.82
2023-04-04T09:24:51.774Z,6.14
2023-04-04T09:26:04.032Z,6.34
2023-04-04T09:27:10.529Z,5.09
2023-04-04T09:28:14.327Z,4.81
2023-04-04T09:29:20.557Z,4.76
2023-04-04T09:30:22.334Z,5.16
2023-04-04T09:31:25.829Z,5.30
2023-04-04T09:32:27.663Z,5.46
2023-04-04T09:33:32.175Z,5.44
2023-04-04T09:34:33.926Z,5.04
2023-04-04T09:35:38.581Z,5.08
2023-04-04T09:36:41.652Z,5.26
2023-04-04T09:37:44.105Z,5.44
2023-04-04T09:38:48.926Z,5.66
2023-04-04T09:39:51.979Z,6.02
2023-04-04T09:40:54.542Z,6.11
2023-04-04T09:41:59.202Z,6.15
2023-04-04T09:43:01.507Z,6.38
2023-04-04T09:44:06.170Z,6.20
2023-04-04T09:45:14.908Z,6.45
2023-04-04T09:46:21.565Z,6.29
2023-04-04T09:47:30.695Z,6.35
2023-04-04T09:48:36.942Z,5.82
2023-04-04T09:49:39.860Z,5.73
2023-04-04T09:50:47.918Z,5.07
2023-04-04T09:51:53.889Z,5.29
2023-04-04T09:52:58.247Z,5.26
2023-04-04T09:54:00.855Z,5.31
2023-04-04T09:55:04.891Z,5.64
2023-04-04T09:56:08.092Z,5.79
2023-04-04T09:57:09.733Z,6.18
2023-04-04T09:58:13.849Z,6.10
2023-04-04T09:59:15.729Z,6.50
2023-04-04T10:00:23.050Z,6.54
2023-04-04T10:01:26.349Z,6.58
2023-04-04T10:02:31.516Z,6.42
2023-04-04T10:03:34.253Z,5.80
2023-04-04T10:04:36.576Z,5.91
2023-04-04T10:05:39.429Z,5.98
2023-04-04T10:06:44.537Z,5.84
2023-04-04T10:07:47.351Z,6.26
2023-04-04T10:08:49.752Z,6.24
2023-04-04T10:09:52.741Z,6.04
2023-04-04T10:11:09.545Z,6.02
2023-04-04T10:12:13.607Z,5.68
2023-04-04T10:13:24.598Z,5.77
2023-04-04T10:14:36.574Z,5.30
2023-04-04T10:15:40.658Z,5.31
2023-04-04T10:16:46.424Z,5.18
2023-04-04T10:17:50.507Z,4.95
2023-04-04T10:18:53.596Z,4.91
2023-04-04T10:19:58.517Z,4.64
2023-04-04T10:21:14.608Z,5.04
2023-04-04T10:22:22.114Z,4.77
2023-04-04T10:23:27.634Z,4.54
2023-04-04T10:24:30.530Z,4.84
2023-04-04T10:25:32.037Z,5.31
2023-04-04T10:26:34.617Z,5.37
2023-04-04T10:27:38.620Z,5.66
2023-04-04T10:28:42.192Z,5.42
2023-04-04T10:29:45.766Z,5.59
2023-04-04T10:31:05.845Z,5.68
2023-04-04T10:32:17.627Z,6.16
2023-04-04T10:33:28.076Z,6.24
2023-04-04T10:34:37.105Z,5.99
2023-04-04T10:35:43.572Z,6.56
2023-04-04T10:36:48.258Z,6.53
2023-04-04T10:37:57.640Z,6.77
2023-04-04T10:39:10.000Z,6.93
2023-04-04T10:40:17.575Z,7.27
2023-04-04T10:41:20.327Z,7.71
2023-04-04T10:42:24.545Z,7.99
2023-04-04T10:43:28.232Z,8.52
2023-04-04T10:44:34.422Z,9.65
2023-04-04T10:45:38.571Z,10.39
2023-04-04T10:46:44.140Z,10.26
2023-04-04T10:47:47.295Z,9.65
2023-04-04T10:48:49.556Z,8.60
2023-04-04T10:49:52.864Z,8.33
2023-04-04T10:50:57.143Z,8.57
2023-04-04T10:51:59.737Z,8.28
2023-04-04T10:53:04.464Z,8.33
2023-04-04T10:54:06.890Z,7.97
2023-04-04T10:55:13.341Z,7.66
2023-04-04T10:56:16.351Z,7.77
2023-04-04T10:57:19.412Z,7.22
2023-04-04T10:58:22.706Z,7.32
2023-04-04T10:59:26.541Z,7.33
2023-04-04T11:00:29.047Z,7.66
2023-04-04T11:01:51.890Z,8.88
2023-04-04T11:02:55.699Z,9.10
2023-04-04T11:04:20.763Z,9.01
2023-04-04T11:05:26.392Z,8.83
2023-04-04T11:07:18.422Z,7.99
2023-04-04T11:08:25.166Z,7.25
2023-04-04T11:09:51.259Z,6.81
2023-04-04T11:10:55.613Z,6.75
2023-04-04T11:12:10.756Z,6.47
2023-04-04T11:13:17.145Z,6.60
2023-04-04T11:14:29.182Z,6.35
2023-04-04T11:15:47.663Z,6.47
2023-04-04T11:16:51.847Z,6.53
2023-04-04T11:17:59.546Z,6.42
2023-04-04T11:19:03.310Z,6.82
2023-04-04T11:20:08.084Z,7.46
2023-04-04T11:21:12.509Z,9.21
2023-04-04T11:22:14.584Z,9.47
2023-04-04T11:23:23.460Z,8.96
2023-04-04T11:24:28.174Z,8.31
2023-04-04T11:25:33.735Z,9.32
2023-04-04T11:26:37.253Z,10.37
2023-04-04T11:27:40.990Z,11.87
2023-04-04T11:28:47.232Z,13.38
2023-04-04T11:29:53.558Z,12.97
2023-04-04T11:31:34.780Z,11.87
2023-04-04T11:32:50.198Z,10.28
2023-04-04T11:33:59.545Z,9.33
2023-04-04T11:35:01.130Z,8.32
2023-04-04T11:36:08.504Z,8.06
2023-04-04T11:37:17.734Z,8.26
2023-04-04T11:38:21.770Z,8.35
2023-04-04T11:39:29.548Z,8.43
2023-04-04T11:40:36.851Z,8.25
2023-04-04T11:41:49.346Z,7.87
2023-04-04T11:42:53.419Z,7.72
2023-04-04T11:43:55.995Z,7.29
2023-04-04T11:45:06.930Z,8.26
2023-04-04T11:46:10.259Z,9.34
2023-04-04T11:47:13.413Z,9.70
2023-04-04T11:48:18.860Z,10.78
2023-04-04T11:49:25.361Z,10.73
2023-04-04T11:50:35.440Z,9.84
2023-04-04T11:51:38.432Z,8.95
2023-04-04T11:52:42.841Z,9.45
2023-04-04T11:53:48.229Z,9.87
2023-04-04T11:54:50.257Z,9.83
2023-04-04T11:55:56.613Z,9.69
2023-04-04T11:56:58.237Z,8.84
2023-04-04T11:58:09.540Z,8.72
2023-04-04T11:59:14.224Z,9.17
2023-04-04T12:00:28.939Z,9.22
2023-04-04T12:01:32.235Z,9.29
2023-04-04T12:02:35.376Z,9.46
2023-04-04T12:03:38.680Z,9.48
2023-04-04T12:04:43.901Z,9.23
2023-04-04T12:05:47.731Z,9.34
2023-04-04T12:06:51.568Z,8.81
2023-04-04T12:07:54.438Z,8.24
2023-04-04T12:08:58.645Z,8.56
2023-04-04T12:10:01.384Z,8.71
2023-04-04T12:11:06.817Z,8.89
2023-04-04T12:12:12.600Z,9.12
2023-04-04T12:13:15.051Z,9.38
2023-04-04T12:14:18.152Z,8.87
2023-04-04T12:15:21.182Z,8.19
2023-04-04T12:16:23.835Z,8.17
2023-04-04T12:17:29.496Z,7.32
2023-04-04T12:18:32.723Z,7.57
2023-04-04T12:19:37.674Z,7.46
2023-04-04T12:20:41.493Z,7.46
2023-04-04T12:21:43.097Z,7.45
2023-04-04T12:22:49.681Z,7.71
2023-04-04T12:23:51.537Z,7.36
2023-04-04T12:24:58.135Z,6.68
2023-04-04T12:26:03.616Z,6.84
2023-04-04T12:27:07.635Z,7.01
2023-04-04T12:28:11.042Z,7.10
2023-04-04T12:29:14.376Z,7.53
2023-04-04T12:30:18.281Z,7.52
2023-04-04T12:31:21.657Z,8.14
2023-04-04T12:32:23.844Z,8.42
2023-04-04T12:33:26.466Z,8.73
2023-04-04T12:35:39.085Z,10.32
2023-04-04T12:36:41.429Z,11.62
2023-04-04T12:38:12.228Z,12.31
2023-04-04T12:39:17.239Z,15.31
2023-04-04T12:40:21.245Z,17.45
2023-04-04T12:41:24.121Z,18.72
2023-04-04T12:42:27.272Z,18.45
2023-04-04T12:43:30.535Z,17.71
2023-04-04T12:44:34.630Z,17.37
2023-04-04T12:45:41.644Z,18.51
2023-04-04T12:46:47.268Z,17.51
2023-04-04T12:47:53.252Z,16.13
2023-04-04T12:48:56.585Z,14.62
2023-04-04T12:49:59.027Z,14.17
2023-04-04T12:51:01.606Z,14.17
2023-04-04T12:52:05.266Z,14.87
2023-04-04T12:53:24.345Z,16.61
2023-04-04T12:54:32.552Z,18.73
2023-04-04T12:55:36.657Z,20.52
2023-04-04T12:56:39.178Z,19.15
2023-04-04T12:57:41.877Z,18.65
2023-04-04T12:58:47.482Z,19.35
2023-04-04T12:59:50.545Z,20.58
2023-04-04T13:00:55.050Z,22.05
2023-04-04T13:01:57.211Z,22.98
2023-04-04T13:02:59.893Z,23.63
2023-04-04T13:04:03.040Z,24.24
2023-04-04T13:05:07.385Z,24.51
2023-04-04T13:06:14.038Z,20.61
2023-04-04T13:07:23.880Z,13.39
2023-04-04T13:08:26.483Z,13.25
2023-04-04T13:09:28.624Z,12.72
2023-04-04T13:10:31.196Z,13.22
2023-04-04T13:12:00.328Z,13.06
2023-04-04T13:13:02.485Z,12.58
2023-04-04T13:14:05.764Z,12.53
2023-04-04T13:15:08.393Z,11.42
2023-04-04T13:16:11.966Z,10.56
2023-04-04T13:17:14.303Z,10.96
2023-04-04T13:18:18.176Z,9.74
2023-04-04T13:19:20.935Z,9.37
2023-04-04T13:20:24.444Z,9.27
2023-04-04T13:21:27.684Z,8.99
2023-04-04T13:22:35.504Z,9.34
2023-04-04T13:23:40.608Z,9.41
2023-04-04T13:24:43.453Z,9.74
2023-04-04T13:25:46.011Z,9.42
2023-04-04T13:26:47.578Z,9.37
2023-04-04T13:27:51.655Z,9.84
2023-04-04T13:28:55.112Z,10.62
2023-04-04T13:29:56.768Z,12.09
2023-04-04T13:30:59.885Z,12.43
2023-04-04T13:32:01.785Z,12.45
2023-04-04T13:33:06.439Z,12.42
2023-04-04T13:34:08.946Z,11.55
2023-04-04T13:35:10.778Z,10.32
2023-04-04T13:36:14.171Z,9.47
2023-04-04T13:37:15.994Z,8.43
2023-04-04T13:38:18.615Z,8.45
2023-04-04T13:39:21.165Z,8.64
2023-04-04T13:40:22.693Z,8.68
2023-04-04T13:41:25.232Z,9.12
2023-04-04T13:42:30.289Z,9.13
2023-04-04T13:43:34.401Z,9.16
2023-04-04T13:44:36.101Z,10.33
2023-04-04T13:45:39.275Z,12.20
2023-04-04T13:46:44.999Z,14.30
2023-04-04T13:47:47.650Z,15.51
2023-04-04T13:48:50.346Z,16.09
2023-04-04T13:49:51.850Z,17.11
2023-04-04T13:50:55.726Z,18.26
2023-04-04T13:51:57.734Z,19.43
2023-04-04T13:53:00.147Z,20.36
2023-04-04T13:54:02.899Z,21.13
2023-04-04T13:55:07.173Z,21.89
2023-04-04T13:57:14.255Z,23.16
2023-04-04T13:58:20.110Z,23.59
2023-04-04T13:59:24.086Z,23.61
2023-04-04T14:00:25.739Z,22.25
2023-04-04T14:01:29.031Z,18.39
2023-04-04T14:02:30.865Z,17.88
2023-04-04T14:03:33.549Z,18.07
2023-04-04T14:04:35.869Z,15.74
2023-04-04T14:05:38.617Z,15.02
2023-04-04T14:06:40.259Z,13.90
2023-04-04T14:07:42.820Z,11.57